Huvudsida
METAR-TAF:

METAR-TAF

Flygplatser :

Umeå Airport

Umeå, Sverige

latitud: 63-48N, longitud: 020-17E, höjd: 7 m

Aktuellt väderrapport

Denna rapport gjordes för 30 minuter sedan, klockan 05:20 UTC
Vind 8 kt från väst/nordväst
Temperatur -4°C
Fuktighet 74%
Tryck 1024 hPa
Sikt 10 km eller mer

METAR: ESNU 050520Z AUTO 30008KT 9999 NCD M04/M08 Q1024 R14/09//95

Tid: 07:50 (05:50 UTC)

Väderprognos

Denna rapport gjordes för 20 minuter sedan, klockan 05:30 UTC
Prognos gäller från 05 kl. 06 UTC till 05 kl. 15 UTC
Vind 5 kt från väst
Sikt 10 km eller mer
Inga moln under 1 500 m eller inga cumulonimbus
Blir
från 05 kl. 11 UTC till 05 kl. 12 UTC
Vind 12 kt från syd

TAF: ESNU 050530Z 0506/0515 27005KT CAVOK BECMG 0511/0512 19012KT

Aktuella väderrapporter och prognoser från 4000 flygplatser (METAR- och TAF-rapporter).

De tillgängliga stationerna syns som gula och röda prickar på kartan.

För musen över prickarna för att se namnen på stationerna.

Klicka sedan för att få väderrapporter och prognoser.

För att ändra kartan: Klicka på de gröna knapparna med ett svart kors på för att zooma in; den gröna knappen med ett streck på för att zooma ut; eller på de gröna pilarna för angränsande kartor.


METAR-TAF: